sensor_id;sensor_type;location;lat;lon;timestamp;pressure;altitude;pressure_sealevel;temperature;humidity
6778;BME280;3426;52.244;10.534;2022-12-07T00:01:21;100531.53;;;5.79;79.38
6778;BME280;3426;52.244;10.534;2022-12-07T00:03:50;100521.88;;;5.80;79.18
6778;BME280;3426;52.244;10.534;2022-12-07T00:06:18;100514.47;;;6.15;77.63
6778;BME280;3426;52.244;10.534;2022-12-07T00:08:45;100520.31;;;5.99;78.11
6778;BME280;3426;52.244;10.534;2022-12-07T00:11:18;100508.38;;;6.14;77.69
6778;BME280;3426;52.244;10.534;2022-12-07T00:13:45;100500.41;;;6.16;77.34
6778;BME280;3426;52.244;10.534;2022-12-07T00:16:20;100504.81;;;6.15;77.58
6778;BME280;3426;52.244;10.534;2022-12-07T00:18:47;100504.53;;;5.99;79.17
6778;BME280;3426;52.244;10.534;2022-12-07T00:23:41;100499.63;;;5.90;79.19
6778;BME280;3426;52.244;10.534;2022-12-07T00:26:11;100506.53;;;6.16;79.16
6778;BME280;3426;52.244;10.534;2022-12-07T00:28:38;100490.84;;;5.66;80.85
6778;BME280;3426;52.244;10.534;2022-12-07T00:31:08;100490.50;;;6.22;78.55
6778;BME280;3426;52.244;10.534;2022-12-07T00:33:36;100490.84;;;5.91;79.00
6778;BME280;3426;52.244;10.534;2022-12-07T00:36:06;100492.47;;;6.17;78.12
6778;BME280;3426;52.244;10.534;2022-12-07T00:38:34;100499.59;;;5.67;82.03
6778;BME280;3426;52.244;10.534;2022-12-07T00:41:04;100498.94;;;6.08;79.10
6778;BME280;3426;52.244;10.534;2022-12-07T00:43:31;100495.63;;;6.03;80.41
6778;BME280;3426;52.244;10.534;2022-12-07T00:46:00;100494.34;;;5.90;80.70
6778;BME280;3426;52.244;10.534;2022-12-07T00:48:27;100485.91;;;6.05;80.52
6778;BME280;3426;52.244;10.534;2022-12-07T00:50:54;100477.78;;;6.11;79.68
6778;BME280;3426;52.244;10.534;2022-12-07T00:53:21;100474.22;;;5.66;80.94
6778;BME280;3426;52.244;10.534;2022-12-07T00:55:48;100473.34;;;6.14;80.96
6778;BME280;3426;52.244;10.534;2022-12-07T00:58:15;100466.47;;;5.39;81.41
6778;BME280;3426;52.244;10.534;2022-12-07T01:00:44;100465.09;;;5.52;81.71
6778;BME280;3426;52.244;10.534;2022-12-07T01:03:14;100464.78;;;5.62;80.80
6778;BME280;3426;52.244;10.534;2022-12-07T01:05:49;100471.72;;;5.86;80.85
6778;BME280;3426;52.244;10.534;2022-12-07T01:08:16;100477.41;;;5.99;79.77
6778;BME280;3426;52.244;10.534;2022-12-07T01:10:42;100469.84;;;6.13;81.33
6778;BME280;3426;52.244;10.534;2022-12-07T01:13:09;100462.69;;;6.17;80.52
6778;BME280;3426;52.244;10.534;2022-12-07T01:15:42;100465.94;;;6.01;81.09
6778;BME280;3426;52.244;10.534;2022-12-07T01:18:09;100458.44;;;6.13;79.96
6778;BME280;3426;52.244;10.534;2022-12-07T01:20:36;100455.97;;;5.86;81.04
6778;BME280;3426;52.244;10.534;2022-12-07T01:23:03;100457.56;;;6.14;80.82
6778;BME280;3426;52.244;10.534;2022-12-07T01:25:29;100457.75;;;6.31;80.11
6778;BME280;3426;52.244;10.534;2022-12-07T01:27:56;100453.16;;;6.36;79.01
6778;BME280;3426;52.244;10.534;2022-12-07T01:30:22;100458.03;;;6.01;81.56
6778;BME280;3426;52.244;10.534;2022-12-07T01:32:49;100459.69;;;6.04;81.12
6778;BME280;3426;52.244;10.534;2022-12-07T01:35:15;100452.31;;;6.35;80.54
6778;BME280;3426;52.244;10.534;2022-12-07T01:37:42;100447.63;;;5.75;82.69
6778;BME280;3426;52.244;10.534;2022-12-07T01:40:09;100439.63;;;6.45;80.67
6778;BME280;3426;52.244;10.534;2022-12-07T01:42:36;100438.66;;;6.04;80.69
6778;BME280;3426;52.244;10.534;2022-12-07T01:47:55;100434.25;;;6.48;80.53
6778;BME280;3426;52.244;10.534;2022-12-07T01:50:26;100426.13;;;6.32;80.22
6778;BME280;3426;52.244;10.534;2022-12-07T01:52:56;100423.59;;;6.51;80.48
6778;BME280;3426;52.244;10.534;2022-12-07T01:55:23;100427.53;;;5.97;82.23
6778;BME280;3426;52.244;10.534;2022-12-07T01:57:52;100429.00;;;6.48;81.46
6778;BME280;3426;52.244;10.534;2022-12-07T02:00:20;100425.69;;;6.43;80.50
6778;BME280;3426;52.244;10.534;2022-12-07T02:03:03;100422.81;;;6.27;81.68
6778;BME280;3426;52.244;10.534;2022-12-07T02:05:32;100429.31;;;6.19;82.26
6778;BME280;3426;52.244;10.534;2022-12-07T02:07:59;100417.38;;;6.10;81.83
6778;BME280;3426;52.244;10.534;2022-12-07T02:10:28;100413.53;;;5.97;83.45
6778;BME280;3426;52.244;10.534;2022-12-07T02:13:05;100409.66;;;6.05;82.66
6778;BME280;3426;52.244;10.534;2022-12-07T02:21:03;100406.38;;;6.64;79.90
6778;BME280;3426;52.244;10.534;2022-12-07T02:30:00;100399.88;;;6.31;82.63
6778;BME280;3426;52.244;10.534;2022-12-07T02:35:09;100400.84;;;5.84;83.58
6778;BME280;3426;52.244;10.534;2022-12-07T02:41:04;100388.72;;;6.46;81.85
6778;BME280;3426;52.244;10.534;2022-12-07T02:43:42;100393.91;;;5.82;83.75
6778;BME280;3426;52.244;10.534;2022-12-07T02:46:14;100385.34;;;5.77;84.43
6778;BME280;3426;52.244;10.534;2022-12-07T02:48:43;100386.56;;;6.35;82.64
6778;BME280;3426;52.244;10.534;2022-12-07T02:51:09;100369.28;;;6.71;80.63
6778;BME280;3426;52.244;10.534;2022-12-07T02:53:40;100373.56;;;6.53;79.44
6778;BME280;3426;52.244;10.534;2022-12-07T03:04:34;100380.38;;;6.15;82.40
6778;BME280;3426;52.244;10.534;2022-12-07T03:15:56;100374.31;;;6.13;82.42
6778;BME280;3426;52.244;10.534;2022-12-07T03:18:28;100356.25;;;6.47;82.23
6778;BME280;3426;52.244;10.534;2022-12-07T03:21:00;100363.81;;;6.55;80.18
6778;BME280;3426;52.244;10.534;2022-12-07T03:23:29;100363.84;;;6.75;79.81
6778;BME280;3426;52.244;10.534;2022-12-07T03:26:00;100368.06;;;6.37;81.00
6778;BME280;3426;52.244;10.534;2022-12-07T03:28:36;100367.72;;;5.57;84.27
6778;BME280;3426;52.244;10.534;2022-12-07T03:31:19;100366.56;;;5.64;85.23
6778;BME280;3426;52.244;10.534;2022-12-07T03:39:23;100349.31;;;6.45;83.80
6778;BME280;3426;52.244;10.534;2022-12-07T03:41:51;100356.09;;;6.30;83.48
6778;BME280;3426;52.244;10.534;2022-12-07T03:44:18;100352.31;;;6.15;85.71
6778;BME280;3426;52.244;10.534;2022-12-07T03:54:44;100343.22;;;6.44;84.21
6778;BME280;3426;52.244;10.534;2022-12-07T03:57:14;100342.03;;;6.51;82.71
6778;BME280;3426;52.244;10.534;2022-12-07T03:59:41;100354.31;;;6.30;83.73
6778;BME280;3426;52.244;10.534;2022-12-07T04:02:11;100350.63;;;6.34;82.83
6778;BME280;3426;52.244;10.534;2022-12-07T04:04:39;100347.56;;;6.03;83.91
6778;BME280;3426;52.244;10.534;2022-12-07T04:07:06;100344.53;;;6.54;83.44
6778;BME280;3426;52.244;10.534;2022-12-07T04:09:32;100354.50;;;6.26;82.58
6778;BME280;3426;52.244;10.534;2022-12-07T04:11:59;100359.78;;;6.26;84.07
6778;BME280;3426;52.244;10.534;2022-12-07T04:14:25;100352.28;;;6.37;82.74
6778;BME280;3426;52.244;10.534;2022-12-07T04:16:56;100362.34;;;6.05;84.25
6778;BME280;3426;52.244;10.534;2022-12-07T04:19:28;100363.91;;;5.88;84.74
6778;BME280;3426;52.244;10.534;2022-12-07T04:21:56;100354.50;;;6.26;83.62
6778;BME280;3426;52.244;10.534;2022-12-07T04:24:22;100354.59;;;6.45;83.08
6778;BME280;3426;52.244;10.534;2022-12-07T04:26:49;100356.41;;;6.22;83.56
6778;BME280;3426;52.244;10.534;2022-12-07T04:29:16;100358.69;;;5.64;85.97
6778;BME280;3426;52.244;10.534;2022-12-07T04:31:44;100358.13;;;5.78;85.55
6778;BME280;3426;52.244;10.534;2022-12-07T04:34:11;100353.28;;;5.91;85.00
6778;BME280;3426;52.244;10.534;2022-12-07T04:36:39;100350.53;;;5.94;84.78
6778;BME280;3426;52.244;10.534;2022-12-07T04:39:11;100350.66;;;6.55;82.59
6778;BME280;3426;52.244;10.534;2022-12-07T04:41:39;100339.09;;;6.17;84.54
6778;BME280;3426;52.244;10.534;2022-12-07T04:44:06;100347.16;;;6.12;83.26
6778;BME280;3426;52.244;10.534;2022-12-07T04:46:33;100348.44;;;6.24;82.92
6778;BME280;3426;52.244;10.534;2022-12-07T04:49:00;100353.63;;;6.88;81.36
6778;BME280;3426;52.244;10.534;2022-12-07T04:51:28;100346.22;;;6.35;82.43
6778;BME280;3426;52.244;10.534;2022-12-07T04:53:55;100338.47;;;6.32;81.74
6778;BME280;3426;52.244;10.534;2022-12-07T04:56:23;100338.28;;;6.36;83.21
6778;BME280;3426;52.244;10.534;2022-12-07T04:58:52;100339.41;;;6.31;83.62
6778;BME280;3426;52.244;10.534;2022-12-07T05:01:19;100344.50;;;5.92;83.65
6778;BME280;3426;52.244;10.534;2022-12-07T05:03:46;100338.91;;;6.21;83.98
6778;BME280;3426;52.244;10.534;2022-12-07T05:06:13;100338.88;;;5.55;85.04
6778;BME280;3426;52.244;10.534;2022-12-07T05:08:40;100357.81;;;6.51;82.04
6778;BME280;3426;52.244;10.534;2022-12-07T05:11:07;100358.78;;;5.61;86.04
6778;BME280;3426;52.244;10.534;2022-12-07T05:13:35;100349.13;;;6.49;83.08
6778;BME280;3426;52.244;10.534;2022-12-07T05:16:02;100350.13;;;6.47;81.93
6778;BME280;3426;52.244;10.534;2022-12-07T05:18:29;100349.81;;;6.54;81.79
6778;BME280;3426;52.244;10.534;2022-12-07T05:20:55;100353.25;;;6.34;82.23
6778;BME280;3426;52.244;10.534;2022-12-07T05:23:22;100361.84;;;6.18;82.23
6778;BME280;3426;52.244;10.534;2022-12-07T05:25:48;100353.78;;;6.00;82.64
6778;BME280;3426;52.244;10.534;2022-12-07T05:28:15;100344.66;;;6.51;81.99
6778;BME280;3426;52.244;10.534;2022-12-07T05:30:41;100348.72;;;5.96;82.15
6778;BME280;3426;52.244;10.534;2022-12-07T05:33:08;100349.13;;;5.85;84.65
6778;BME280;3426;52.244;10.534;2022-12-07T05:35:34;100356.09;;;5.86;83.33
6778;BME280;3426;52.244;10.534;2022-12-07T05:38:01;100352.44;;;5.90;84.10
6778;BME280;3426;52.244;10.534;2022-12-07T05:40:27;100351.38;;;5.96;82.10
6778;BME280;3426;52.244;10.534;2022-12-07T05:42:54;100346.47;;;6.29;82.74
6778;BME280;3426;52.244;10.534;2022-12-07T05:45:25;100349.00;;;5.88;83.50
6778;BME280;3426;52.244;10.534;2022-12-07T05:47:51;100344.28;;;6.18;81.09
6778;BME280;3426;52.244;10.534;2022-12-07T05:50:18;100342.88;;;5.66;82.99
6778;BME280;3426;52.244;10.534;2022-12-07T05:52:44;100343.84;;;6.29;81.50
6778;BME280;3426;52.244;10.534;2022-12-07T05:55:11;100342.63;;;6.37;82.06
6778;BME280;3426;52.244;10.534;2022-12-07T05:57:37;100346.97;;;6.38;80.19
6778;BME280;3426;52.244;10.534;2022-12-07T06:00:04;100348.63;;;6.41;81.66
6778;BME280;3426;52.244;10.534;2022-12-07T06:02:31;100345.13;;;5.98;82.00
6778;BME280;3426;52.244;10.534;2022-12-07T06:04:58;100342.63;;;5.72;82.92
6778;BME280;3426;52.244;10.534;2022-12-07T06:07:24;100345.81;;;6.24;83.10
6778;BME280;3426;52.244;10.534;2022-12-07T06:09:51;100334.41;;;6.45;82.29
6778;BME280;3426;52.244;10.534;2022-12-07T06:12:17;100347.53;;;5.81;83.86
6778;BME280;3426;52.244;10.534;2022-12-07T06:15:03;100347.81;;;5.51;86.18
6778;BME280;3426;52.244;10.534;2022-12-07T06:17:30;100350.94;;;5.83;84.72
6778;BME280;3426;52.244;10.534;2022-12-07T06:19:56;100355.16;;;4.70;88.14
6778;BME280;3426;52.244;10.534;2022-12-07T06:22:23;100350.59;;;4.75;87.44
6778;BME280;3426;52.244;10.534;2022-12-07T06:24:49;100357.66;;;5.68;85.81
6778;BME280;3426;52.244;10.534;2022-12-07T06:27:16;100353.28;;;5.69;84.84
6778;BME280;3426;52.244;10.534;2022-12-07T06:29:42;100352.38;;;5.46;84.20
6778;BME280;3426;52.244;10.534;2022-12-07T06:32:09;100350.72;;;6.11;82.26
6778;BME280;3426;52.244;10.534;2022-12-07T06:34:35;100348.84;;;4.75;85.59
6778;BME280;3426;52.244;10.534;2022-12-07T06:37:02;100352.94;;;5.08;87.99
6778;BME280;3426;52.244;10.534;2022-12-07T06:39:29;100348.25;;;5.63;84.12
6778;BME280;3426;52.244;10.534;2022-12-07T06:41:56;100357.03;;;5.83;84.53
6778;BME280;3426;52.244;10.534;2022-12-07T06:44:24;100355.22;;;5.85;83.93
6778;BME280;3426;52.244;10.534;2022-12-07T06:46:51;100363.19;;;5.61;84.74
6778;BME280;3426;52.244;10.534;2022-12-07T06:49:32;100353.38;;;5.66;85.73
6778;BME280;3426;52.244;10.534;2022-12-07T06:51:59;100352.50;;;6.10;84.51
6778;BME280;3426;52.244;10.534;2022-12-07T06:54:25;100358.00;;;6.04;83.94
6778;BME280;3426;52.244;10.534;2022-12-07T06:56:52;100350.38;;;5.98;83.54
6778;BME280;3426;52.244;10.534;2022-12-07T06:59:18;100356.97;;;6.08;82.98
6778;BME280;3426;52.244;10.534;2022-12-07T07:01:45;100360.72;;;6.03;83.18
6778;BME280;3426;52.244;10.534;2022-12-07T07:04:11;100362.53;;;5.77;83.83
6778;BME280;3426;52.244;10.534;2022-12-07T07:06:38;100349.75;;;5.46;85.74
6778;BME280;3426;52.244;10.534;2022-12-07T07:09:04;100354.72;;;5.76;85.51
6778;BME280;3426;52.244;10.534;2022-12-07T07:11:31;100357.19;;;5.80;85.72
6778;BME280;3426;52.244;10.534;2022-12-07T07:13:57;100351.06;;;5.58;85.83
6778;BME280;3426;52.244;10.534;2022-12-07T07:16:29;100358.63;;;5.66;84.46
6778;BME280;3426;52.244;10.534;2022-12-07T07:18:57;100353.56;;;5.14;86.83
6778;BME280;3426;52.244;10.534;2022-12-07T07:21:24;100363.34;;;6.03;84.82
6778;BME280;3426;52.244;10.534;2022-12-07T07:23:50;100367.53;;;5.15;86.06
6778;BME280;3426;52.244;10.534;2022-12-07T07:26:16;100360.66;;;5.12;86.40
6778;BME280;3426;52.244;10.534;2022-12-07T07:28:48;100375.09;;;5.47;86.20
6778;BME280;3426;52.244;10.534;2022-12-07T07:31:15;100365.72;;;5.64;86.39
6778;BME280;3426;52.244;10.534;2022-12-07T07:33:41;100368.00;;;5.49;84.90
6778;BME280;3426;52.244;10.534;2022-12-07T07:36:08;100367.31;;;5.68;85.31
6778;BME280;3426;52.244;10.534;2022-12-07T07:38:34;100364.75;;;5.19;85.65
6778;BME280;3426;52.244;10.534;2022-12-07T07:41:01;100366.38;;;6.14;84.04
6778;BME280;3426;52.244;10.534;2022-12-07T07:43:27;100377.31;;;4.86;87.94
6778;BME280;3426;52.244;10.534;2022-12-07T07:45:54;100374.25;;;5.47;86.05
6778;BME280;3426;52.244;10.534;2022-12-07T07:48:20;100385.50;;;5.50;85.60
6778;BME280;3426;52.244;10.534;2022-12-07T07:50:48;100384.13;;;6.09;83.21
6778;BME280;3426;52.244;10.534;2022-12-07T07:53:15;100382.28;;;5.66;84.58
6778;BME280;3426;52.244;10.534;2022-12-07T07:55:41;100388.28;;;5.46;85.95
6778;BME280;3426;52.244;10.534;2022-12-07T07:58:15;100373.09;;;5.30;86.64
6778;BME280;3426;52.244;10.534;2022-12-07T08:00:42;100379.78;;;6.30;83.80
6778;BME280;3426;52.244;10.534;2022-12-07T08:03:08;100383.97;;;5.90;84.59
6778;BME280;3426;52.244;10.534;2022-12-07T08:05:37;100378.47;;;6.18;83.23
6778;BME280;3426;52.244;10.534;2022-12-07T08:08:03;100386.28;;;5.05;86.34
6778;BME280;3426;52.244;10.534;2022-12-07T08:10:30;100381.44;;;5.42;86.46
6778;BME280;3426;52.244;10.534;2022-12-07T08:12:58;100393.94;;;5.12;85.69
6778;BME280;3426;52.244;10.534;2022-12-07T08:15:43;100387.91;;;5.78;85.29
6778;BME280;3426;52.244;10.534;2022-12-07T08:18:10;100396.25;;;5.66;85.47
6778;BME280;3426;52.244;10.534;2022-12-07T08:20:37;100399.88;;;5.17;86.89
6778;BME280;3426;52.244;10.534;2022-12-07T08:23:05;100384.72;;;6.16;84.44
6778;BME280;3426;52.244;10.534;2022-12-07T08:25:32;100390.19;;;5.88;83.12
6778;BME280;3426;52.244;10.534;2022-12-07T08:28:00;100392.00;;;6.31;82.49
6778;BME280;3426;52.244;10.534;2022-12-07T08:30:27;100381.81;;;5.54;84.94
6778;BME280;3426;52.244;10.534;2022-12-07T08:32:54;100393.28;;;5.99;84.59
6778;BME280;3426;52.244;10.534;2022-12-07T08:35:21;100388.03;;;5.99;83.98
6778;BME280;3426;52.244;10.534;2022-12-07T08:37:47;100381.88;;;5.53;84.42
6778;BME280;3426;52.244;10.534;2022-12-07T08:40:14;100391.69;;;5.95;84.70
6778;BME280;3426;52.244;10.534;2022-12-07T08:42:42;100385.31;;;5.55;85.79
6778;BME280;3426;52.244;10.534;2022-12-07T08:45:12;100386.44;;;5.71;85.30
6778;BME280;3426;52.244;10.534;2022-12-07T08:47:43;100391.66;;;5.26;85.89
6778;BME280;3426;52.244;10.534;2022-12-07T08:50:11;100390.63;;;5.53;86.54
6778;BME280;3426;52.244;10.534;2022-12-07T08:52:39;100397.13;;;5.43;85.66
6778;BME280;3426;52.244;10.534;2022-12-07T08:55:06;100396.88;;;5.73;85.68
6778;BME280;3426;52.244;10.534;2022-12-07T08:57:34;100398.91;;;5.43;86.04
6778;BME280;3426;52.244;10.534;2022-12-07T09:00:02;100391.75;;;5.93;84.17
6778;BME280;3426;52.244;10.534;2022-12-07T09:02:31;100398.81;;;5.46;84.70
6778;BME280;3426;52.244;10.534;2022-12-07T09:04:57;100398.91;;;5.43;85.09
6778;BME280;3426;52.244;10.534;2022-12-07T09:07:24;100394.97;;;5.54;84.25
6778;BME280;3426;52.244;10.534;2022-12-07T09:09:51;100400.88;;;5.83;83.14
6778;BME280;3426;52.244;10.534;2022-12-07T09:12:18;100396.59;;;5.80;84.07
6778;BME280;3426;52.244;10.534;2022-12-07T09:14:44;100399.91;;;5.15;86.44
6778;BME280;3426;52.244;10.534;2022-12-07T09:17:12;100406.28;;;5.78;84.14
6778;BME280;3426;52.244;10.534;2022-12-07T09:19:39;100404.22;;;5.65;85.90
6778;BME280;3426;52.244;10.534;2022-12-07T09:22:06;100405.34;;;5.81;85.36
6778;BME280;3426;52.244;10.534;2022-12-07T09:24:34;100402.03;;;5.76;84.97
6778;BME280;3426;52.244;10.534;2022-12-07T09:27:00;100399.06;;;5.85;84.03
6778;BME280;3426;52.244;10.534;2022-12-07T09:29:27;100395.84;;;6.00;82.49
6778;BME280;3426;52.244;10.534;2022-12-07T09:31:53;100391.66;;;5.96;83.65
6778;BME280;3426;52.244;10.534;2022-12-07T09:34:20;100393.03;;;5.36;84.23
6778;BME280;3426;52.244;10.534;2022-12-07T09:36:47;100400.75;;;5.16;85.69
6778;BME280;3426;52.244;10.534;2022-12-07T09:39:14;100390.16;;;5.42;86.81
6778;BME280;3426;52.244;10.534;2022-12-07T09:41:42;100391.31;;;6.48;83.07
6778;BME280;3426;52.244;10.534;2022-12-07T09:44:13;100383.34;;;6.49;81.62
6778;BME280;3426;52.244;10.534;2022-12-07T09:46:42;100393.41;;;5.96;82.61
6778;BME280;3426;52.244;10.534;2022-12-07T09:49:13;100394.25;;;5.73;84.94
6778;BME280;3426;52.244;10.534;2022-12-07T09:51:41;100399.63;;;5.93;83.48
6778;BME280;3426;52.244;10.534;2022-12-07T09:54:11;100391.03;;;5.43;84.42
6778;BME280;3426;52.244;10.534;2022-12-07T09:56:38;100392.78;;;5.66;84.89
6778;BME280;3426;52.244;10.534;2022-12-07T09:59:05;100390.81;;;5.94;83.75
6778;BME280;3426;52.244;10.534;2022-12-07T10:01:33;100386.28;;;5.52;84.31
6778;BME280;3426;52.244;10.534;2022-12-07T10:04:19;100392.59;;;6.16;83.48
6778;BME280;3426;52.244;10.534;2022-12-07T10:06:47;100391.44;;;6.23;82.10
6778;BME280;3426;52.244;10.534;2022-12-07T10:09:16;100378.56;;;5.71;83.29
6778;BME280;3426;52.244;10.534;2022-12-07T10:12:10;100376.22;;;5.64;84.44
6778;BME280;3426;52.244;10.534;2022-12-07T10:14:39;100386.81;;;6.07;83.71
6778;BME280;3426;52.244;10.534;2022-12-07T10:23:03;100380.53;;;5.88;83.04
6778;BME280;3426;52.244;10.534;2022-12-07T10:25:33;100382.25;;;6.33;81.58
6778;BME280;3426;52.244;10.534;2022-12-07T10:28:03;100377.81;;;5.91;81.93
6778;BME280;3426;52.244;10.534;2022-12-07T10:36:16;100375.75;;;5.76;82.47
6778;BME280;3426;52.244;10.534;2022-12-07T10:38:46;100371.09;;;5.82;80.64
6778;BME280;3426;52.244;10.534;2022-12-07T10:41:12;100375.94;;;5.48;82.42
6778;BME280;3426;52.244;10.534;2022-12-07T10:43:47;100387.22;;;5.51;81.81
6778;BME280;3426;52.244;10.534;2022-12-07T11:07:54;100369.50;;;5.78;80.33
6778;BME280;3426;52.244;10.534;2022-12-07T11:16:02;100359.50;;;5.88;79.91
6778;BME280;3426;52.244;10.534;2022-12-07T11:18:54;100356.56;;;5.74;80.11
6778;BME280;3426;52.244;10.534;2022-12-07T11:24:18;100359.94;;;6.43;79.01
6778;BME280;3426;52.244;10.534;2022-12-07T11:35:14;100349.50;;;6.20;78.76
6778;BME280;3426;52.244;10.534;2022-12-07T11:37:43;100349.34;;;5.57;80.97
6778;BME280;3426;52.244;10.534;2022-12-07T11:40:15;100349.13;;;6.49;78.55
6778;BME280;3426;52.244;10.534;2022-12-07T11:45:28;100353.50;;;6.28;78.30
6778;BME280;3426;52.244;10.534;2022-12-07T11:48:02;100331.34;;;6.95;76.01
6778;BME280;3426;52.244;10.534;2022-12-07T11:50:37;100337.56;;;6.74;78.03
6778;BME280;3426;52.244;10.534;2022-12-07T11:55:52;100340.84;;;5.96;80.02
6778;BME280;3426;52.244;10.534;2022-12-07T12:03:51;100326.97;;;6.13;78.33
6778;BME280;3426;52.244;10.534;2022-12-07T12:06:19;100317.22;;;7.16;75.75
6778;BME280;3426;52.244;10.534;2022-12-07T12:08:54;100317.06;;;5.99;78.20
6778;BME280;3426;52.244;10.534;2022-12-07T12:20:15;100301.78;;;6.70;76.05
6778;BME280;3426;52.244;10.534;2022-12-07T12:22:49;100315.84;;;5.84;77.25
6778;BME280;3426;52.244;10.534;2022-12-07T12:28:04;100309.56;;;6.52;74.75
6778;BME280;3426;52.244;10.534;2022-12-07T12:30:37;100301.00;;;6.47;75.50
6778;BME280;3426;52.244;10.534;2022-12-07T12:33:27;100308.97;;;6.03;77.32
6778;BME280;3426;52.244;10.534;2022-12-07T12:47:00;100300.59;;;6.77;76.07
6778;BME280;3426;52.244;10.534;2022-12-07T12:51:56;100302.84;;;6.25;76.97
6778;BME280;3426;52.244;10.534;2022-12-07T12:54:25;100300.03;;;6.89;75.52
6778;BME280;3426;52.244;10.534;2022-12-07T12:59:38;100291.66;;;6.60;74.72
6778;BME280;3426;52.244;10.534;2022-12-07T13:02:30;100296.47;;;6.30;76.20
6778;BME280;3426;52.244;10.534;2022-12-07T13:21:01;100292.19;;;6.07;77.52
6778;BME280;3426;52.244;10.534;2022-12-07T13:26:38;100285.28;;;6.25;76.88
6778;BME280;3426;52.244;10.534;2022-12-07T13:31:53;100281.66;;;6.48;74.92
6778;BME280;3426;52.244;10.534;2022-12-07T13:34:40;100287.19;;;5.78;78.71
6778;BME280;3426;52.244;10.534;2022-12-07T13:37:14;100295.88;;;5.36;80.12
6778;BME280;3426;52.244;10.534;2022-12-07T13:39:51;100283.44;;;6.07;78.61
6778;BME280;3426;52.244;10.534;2022-12-07T13:42:31;100279.13;;;6.47;77.09
6778;BME280;3426;52.244;10.534;2022-12-07T13:45:00;100279.97;;;5.83;78.10
6778;BME280;3426;52.244;10.534;2022-12-07T13:47:35;100281.19;;;6.38;76.58
6778;BME280;3426;52.244;10.534;2022-12-07T13:50:26;100282.69;;;5.59;79.08
6778;BME280;3426;52.244;10.534;2022-12-07T13:53:00;100275.13;;;6.16;77.58
6778;BME280;3426;52.244;10.534;2022-12-07T13:55:28;100280.03;;;6.25;78.45
6778;BME280;3426;52.244;10.534;2022-12-07T13:57:55;100278.63;;;6.57;76.37
6778;BME280;3426;52.244;10.534;2022-12-07T14:00:27;100266.06;;;6.64;76.39
6778;BME280;3426;52.244;10.534;2022-12-07T14:05:29;100280.53;;;6.13;77.32
6778;BME280;3426;52.244;10.534;2022-12-07T14:12:56;100272.44;;;6.18;78.97
6778;BME280;3426;52.244;10.534;2022-12-07T14:15:33;100269.00;;;6.77;76.25
6778;BME280;3426;52.244;10.534;2022-12-07T14:18:02;100266.91;;;7.04;75.20
6778;BME280;3426;52.244;10.534;2022-12-07T14:20:39;100273.38;;;6.37;76.78
6778;BME280;3426;52.244;10.534;2022-12-07T14:23:23;100271.47;;;6.61;77.46
6778;BME280;3426;52.244;10.534;2022-12-07T14:25:52;100271.66;;;6.56;77.57
6778;BME280;3426;52.244;10.534;2022-12-07T14:28:27;100267.59;;;6.49;77.52
6778;BME280;3426;52.244;10.534;2022-12-07T14:30:54;100268.59;;;6.47;77.46
6778;BME280;3426;52.244;10.534;2022-12-07T14:33:21;100267.69;;;6.67;77.53
6778;BME280;3426;52.244;10.534;2022-12-07T14:35:48;100273.06;;;6.24;77.49
6778;BME280;3426;52.244;10.534;2022-12-07T14:38:15;100267.59;;;6.08;77.10
6778;BME280;3426;52.244;10.534;2022-12-07T14:40:44;100269.81;;;6.18;77.24
6778;BME280;3426;52.244;10.534;2022-12-07T14:43:12;100262.19;;;6.32;77.60
6778;BME280;3426;52.244;10.534;2022-12-07T14:45:40;100265.53;;;6.95;75.42
6778;BME280;3426;52.244;10.534;2022-12-07T14:48:09;100258.91;;;6.27;75.92
6778;BME280;3426;52.244;10.534;2022-12-07T14:50:57;100258.31;;;6.61;75.79
6778;BME280;3426;52.244;10.534;2022-12-07T14:53:48;100260.72;;;7.05;74.47
6778;BME280;3426;52.244;10.534;2022-12-07T14:56:23;100267.47;;;6.52;75.28
6778;BME280;3426;52.244;10.534;2022-12-07T14:58:49;100266.16;;;6.42;76.85
6778;BME280;3426;52.244;10.534;2022-12-07T15:01:16;100258.41;;;6.97;75.05
6778;BME280;3426;52.244;10.534;2022-12-07T15:03:42;100271.22;;;6.86;74.88
6778;BME280;3426;52.244;10.534;2022-12-07T15:06:13;100266.38;;;6.56;76.50
6778;BME280;3426;52.244;10.534;2022-12-07T15:08:40;100271.91;;;6.71;75.93
6778;BME280;3426;52.244;10.534;2022-12-07T15:11:11;100277.50;;;6.63;75.35
6778;BME280;3426;52.244;10.534;2022-12-07T15:13:38;100278.72;;;6.35;75.69
6778;BME280;3426;52.244;10.534;2022-12-07T15:16:23;100274.91;;;6.00;77.28
6778;BME280;3426;52.244;10.534;2022-12-07T15:18:49;100267.09;;;5.77;78.27
6778;BME280;3426;52.244;10.534;2022-12-07T15:21:36;100265.03;;;5.85;76.54
6778;BME280;3426;52.244;10.534;2022-12-07T15:24:02;100270.22;;;5.87;77.37
6778;BME280;3426;52.244;10.534;2022-12-07T15:26:29;100268.47;;;6.69;74.14
6778;BME280;3426;52.244;10.534;2022-12-07T15:28:55;100264.19;;;6.47;75.73
6778;BME280;3426;52.244;10.534;2022-12-07T15:31:22;100262.91;;;6.56;74.68
6778;BME280;3426;52.244;10.534;2022-12-07T15:34:08;100261.53;;;6.27;74.40
6778;BME280;3426;52.244;10.534;2022-12-07T15:36:35;100258.19;;;6.64;74.00
6778;BME280;3426;52.244;10.534;2022-12-07T15:39:02;100260.44;;;6.53;74.56
6778;BME280;3426;52.244;10.534;2022-12-07T15:41:44;100257.41;;;6.42;75.08
6778;BME280;3426;52.244;10.534;2022-12-07T15:44:12;100264.28;;;6.64;75.31
6778;BME280;3426;52.244;10.534;2022-12-07T15:46:57;100260.22;;;7.15;72.09
6778;BME280;3426;52.244;10.534;2022-12-07T15:49:24;100257.06;;;6.70;73.31
6778;BME280;3426;52.244;10.534;2022-12-07T15:51:51;100256.25;;;6.06;75.26
6778;BME280;3426;52.244;10.534;2022-12-07T15:54:20;100244.38;;;6.78;74.96
6778;BME280;3426;52.244;10.534;2022-12-07T15:56:47;100258.06;;;7.24;71.52
6778;BME280;3426;52.244;10.534;2022-12-07T15:59:14;100239.31;;;6.54;74.91
6778;BME280;3426;52.244;10.534;2022-12-07T16:01:40;100257.16;;;6.87;73.39
6778;BME280;3426;52.244;10.534;2022-12-07T16:04:07;100258.91;;;6.47;74.71
6778;BME280;3426;52.244;10.534;2022-12-07T16:06:34;100264.41;;;5.78;77.52
6778;BME280;3426;52.244;10.534;2022-12-07T16:09:01;100278.63;;;5.96;77.95
6778;BME280;3426;52.244;10.534;2022-12-07T16:11:27;100292.78;;;5.70;79.58
6778;BME280;3426;52.244;10.534;2022-12-07T16:13:54;100288.72;;;6.05;77.42